Time;durP1;ratioP1;P1;durP2;ratioP2;P2;SDS_P1;SDS_P2;PMS_P1;PMS_P2;Temp;Humidity;BMP_temperature;BMP_pressure;BME280_temperature;BME280_humidity;BME280_pressure;Samples;Min_cycle;Max_cycle;Signal;HPM_P1;HPM_P2
2021/05/29 00:02:04;;;;;;;16.03;6.53;;;;;;;;;;5086968;28;20539;-68
2021/05/29 00:04:30;;;;;;;16.20;6.70;;;;;;;;;;5088115;28;20028;-68
2021/05/29 00:06:55;;;;;;;15.10;6.03;;;;;;;;;;5079723;28;20028;-68
2021/05/29 00:09:20;;;;;;;14.20;6.07;;;;;;;;;;5085729;28;20040;-68
2021/05/29 00:11:46;;;;;;;17.17;6.83;;;;;;;;;;5084452;28;20388;-68
2021/05/29 00:14:11;;;;;;;14.10;5.40;;;;;;;;;;5086220;28;20054;-68
2021/05/29 00:16:36;;;;;;;15.23;6.23;;;;;;;;;;5087136;28;20036;-68
2021/05/29 00:19:02;;;;;;;17.90;5.97;;;;;;;;;;5083937;28;20032;-68
2021/05/29 00:21:27;;;;;;;15.37;5.60;;;;;;;;;;5089198;28;20601;-68
2021/05/29 00:23:52;;;;;;;13.33;5.60;;;;;;;;;;5083530;28;20040;-68
2021/05/29 00:26:17;;;;;;;17.43;5.77;;;;;;;;;;5078900;28;20032;-68
2021/05/29 00:28:43;;;;;;;13.47;5.67;;;;;;;;;;5063490;28;20063;-68
2021/05/29 00:31:08;;;;;;;16.83;6.43;;;;;;;;;;5078441;28;20032;-68
2021/05/29 00:33:34;;;;;;;17.17;5.93;;;;;;;;;;5089168;28;20050;-68
2021/05/29 00:35:59;;;;;;;16.77;6.77;;;;;;;;;;5088670;28;20407;-68
2021/05/29 00:38:24;;;;;;;19.70;6.00;;;;;;;;;;5076782;28;20044;-68
2021/05/29 00:40:49;;;;;;;15.47;5.40;;;;;;;;;;5079642;28;20032;-68
2021/05/29 00:43:15;;;;;;;13.57;5.53;;;;;;;;;;5086890;28;20104;-68
2021/05/29 00:45:40;;;;;;;14.73;5.60;;;;;;;;;;5084825;28;20042;-68
2021/05/29 00:48:06;;;;;;;15.30;5.93;;;;;;;;;;5091895;28;20034;-68
2021/05/29 00:50:31;;;;;;;16.60;5.70;;;;;;;;;;5085885;28;20039;-68
2021/05/29 00:52:57;;;;;;;15.43;5.70;;;;;;;;;;5091423;28;20468;-68
2021/05/29 00:55:22;;;;;;;13.10;5.67;;;;;;;;;;5085152;28;20055;-68
2021/05/29 00:57:48;;;;;;;18.20;6.53;;;;;;;;;;5090349;28;20046;-67
2021/05/29 01:00:16;;;;;;;14.57;5.93;;;;;;;;;;5087006;28;20031;-68
2021/05/29 01:02:42;;;;;;;15.77;5.30;;;;;;;;;;5088611;22;20136;-68
2021/05/29 01:05:09;;;;;;;13.97;5.53;;;;;;;;;;5086451;28;20151;-68
2021/05/29 01:07:34;;;;;;;14.37;5.93;;;;;;;;;;5085347;28;20028;-68
2021/05/29 01:10:00;;;;;;;13.43;5.70;;;;;;;;;;5086272;28;20020;-68
2021/05/29 01:12:25;;;;;;;19.00;5.73;;;;;;;;;;5086094;28;20016;-68
2021/05/29 01:14:56;;;;;;;13.57;5.33;;;;;;;;;;5090145;28;20028;-68
2021/05/29 01:17:22;;;;;;;15.57;5.93;;;;;;;;;;5090073;28;20024;-68
2021/05/29 01:19:47;;;;;;;15.83;5.87;;;;;;;;;;5084249;28;20085;-68
2021/05/29 01:22:13;;;;;;;13.97;6.53;;;;;;;;;;5089455;28;20028;-68
2021/05/29 01:24:38;;;;;;;13.60;5.80;;;;;;;;;;5089356;28;20027;-68
2021/05/29 01:27:04;;;;;;;11.97;5.13;;;;;;;;;;5086440;28;20028;-68
2021/05/29 01:29:30;;;;;;;13.87;5.50;;;;;;;;;;5089335;28;20066;-68
2021/05/29 01:32:19;;;;;;;14.63;5.90;;;;;;;;;;5085458;28;20755;-68
2021/05/29 01:34:40;;;;;;;13.33;5.50;;;;;;;;;;5087973;28;20070;-68
2021/05/29 01:37:06;;;;;;;14.80;5.73;;;;;;;;;;5089673;28;20060;-68
2021/05/29 01:39:31;;;;;;;16.37;5.37;;;;;;;;;;5081612;28;20033;-68
2021/05/29 01:41:57;;;;;;;15.37;5.60;;;;;;;;;;5084504;28;20424;-68
2021/05/29 01:44:23;;;;;;;16.90;4.87;;;;;;;;;;5089476;28;20103;-68
2021/05/29 01:46:49;;;;;;;15.13;5.43;;;;;;;;;;5089004;28;20102;-68
2021/05/29 01:49:14;;;;;;;14.17;5.90;;;;;;;;;;5084500;28;20096;-68
2021/05/29 01:51:39;;;;;;;12.33;5.23;;;;;;;;;;5089421;28;20316;-68
2021/05/29 01:54:05;;;;;;;16.47;6.00;;;;;;;;;;5084438;28;20027;-68
2021/05/29 01:56:30;;;;;;;16.17;6.47;;;;;;;;;;5086001;28;20132;-68
2021/05/29 01:58:55;;;;;;;13.77;6.63;;;;;;;;;;5087748;28;20036;-68
2021/05/29 02:01:20;;;;;;;13.93;6.20;;;;;;;;;;5083262;28;20035;-68
2021/05/29 02:03:46;;;;;;;15.60;6.70;;;;;;;;;;5085184;28;20052;-68
2021/05/29 02:06:12;;;;;;;15.17;7.13;;;;;;;;;;5088830;28;20036;-68
2021/05/29 02:08:37;;;;;;;15.97;6.03;;;;;;;;;;5084968;28;20126;-68
2021/05/29 02:11:02;;;;;;;18.03;6.57;;;;;;;;;;5089275;28;20133;-70
2021/05/29 02:13:29;;;;;;;16.33;6.50;;;;;;;;;;5086202;28;20031;-70
2021/05/29 02:15:54;;;;;;;18.87;7.57;;;;;;;;;;5089081;28;20027;-70
2021/05/29 02:18:20;;;;;;;19.07;7.50;;;;;;;;;;5089378;28;20495;-71
2021/05/29 02:20:58;;;;;;;16.43;7.30;;;;;;;;;;5088311;28;20049;-71
2021/05/29 02:23:25;;;;;;;18.17;7.43;;;;;;;;;;5087463;28;20074;-71
2021/05/29 02:25:51;;;;;;;16.67;7.03;;;;;;;;;;5089768;28;20020;-71
2021/05/29 02:28:17;;;;;;;15.50;6.90;;;;;;;;;;5088218;28;20075;-71
2021/05/29 02:30:43;;;;;;;13.40;6.20;;;;;;;;;;5088474;28;20055;-71
2021/05/29 02:33:08;;;;;;;14.43;5.97;;;;;;;;;;5088058;28;20024;-71
2021/05/29 02:35:34;;;;;;;18.17;6.23;;;;;;;;;;5092333;28;20024;-71
2021/05/29 02:37:59;;;;;;;14.93;5.77;;;;;;;;;;5087294;28;20315;-71
2021/05/29 02:40:25;;;;;;;13.30;6.07;;;;;;;;;;5088388;28;20028;-71
2021/05/29 02:42:50;;;;;;;16.57;6.57;;;;;;;;;;5088251;28;20043;-70
2021/05/29 02:45:15;;;;;;;17.07;6.63;;;;;;;;;;5088697;28;20120;-70
2021/05/29 02:47:41;;;;;;;15.70;6.07;;;;;;;;;;5086758;28;20031;-70
2021/05/29 02:50:07;;;;;;;14.50;5.13;;;;;;;;;;5088403;28;20459;-71
2021/05/29 02:52:32;;;;;;;13.37;5.73;;;;;;;;;;5087211;28;20075;-70
2021/05/29 02:54:57;;;;;;;14.30;6.33;;;;;;;;;;5065514;28;20020;-70
2021/05/29 02:57:23;;;;;;;14.27;5.93;;;;;;;;;;5088183;28;20414;-70
2021/05/29 02:59:48;;;;;;;15.23;6.27;;;;;;;;;;5088108;28;20051;-70
2021/05/29 03:02:13;;;;;;;14.50;6.40;;;;;;;;;;5085054;28;20402;-70
2021/05/29 03:04:39;;;;;;;14.00;6.07;;;;;;;;;;5084062;28;20040;-70
2021/05/29 03:07:04;;;;;;;16.13;6.47;;;;;;;;;;5088213;28;20472;-70
2021/05/29 03:09:30;;;;;;;12.67;5.93;;;;;;;;;;5084279;28;20121;-70
2021/05/29 03:11:56;;;;;;;15.50;6.43;;;;;;;;;;5087350;28;20162;-70
2021/05/29 03:14:21;;;;;;;13.07;5.57;;;;;;;;;;5085053;28;20456;-70
2021/05/29 03:16:47;;;;;;;13.97;6.30;;;;;;;;;;5087800;28;20031;-70
2021/05/29 03:19:13;;;;;;;13.33;5.90;;;;;;;;;;5087719;28;20276;-70
2021/05/29 03:21:38;;;;;;;15.57;6.10;;;;;;;;;;5088039;28;20032;-70
2021/05/29 03:24:03;;;;;;;15.93;5.77;;;;;;;;;;5087283;28;20027;-70
2021/05/29 03:26:29;;;;;;;15.03;6.40;;;;;;;;;;5090682;28;20495;-70
2021/05/29 03:28:54;;;;;;;13.33;6.13;;;;;;;;;;5087084;28;20362;-70
2021/05/29 03:31:19;;;;;;;13.03;4.93;;;;;;;;;;5086970;28;20050;-70
2021/05/29 03:33:45;;;;;;;11.30;4.23;;;;;;;;;;5082701;28;20032;-70
2021/05/29 03:36:10;;;;;;;10.53;4.57;;;;;;;;;;5087317;28;20039;-70
2021/05/29 03:38:35;;;;;;;11.03;4.30;;;;;;;;;;5085888;28;20031;-71
2021/05/29 03:41:01;;;;;;;12.73;4.63;;;;;;;;;;5087160;28;20024;-71
2021/05/29 03:43:26;;;;;;;10.03;4.67;;;;;;;;;;5083253;28;20036;-71
2021/05/29 03:45:51;;;;;;;11.97;4.70;;;;;;;;;;5087474;28;20504;-71
2021/05/29 03:48:17;;;;;;;13.57;4.17;;;;;;;;;;5086784;28;20032;-71
2021/05/29 03:50:42;;;;;;;10.00;4.10;;;;;;;;;;5086639;28;20480;-71
2021/05/29 03:53:07;;;;;;;11.13;3.83;;;;;;;;;;5086354;28;20095;-71
2021/05/29 03:55:33;;;;;;;13.63;4.43;;;;;;;;;;5085265;28;20043;-70
2021/05/29 03:57:58;;;;;;;13.03;4.67;;;;;;;;;;5086767;28;20051;-70
2021/05/29 04:00:24;;;;;;;13.97;3.90;;;;;;;;;;5085582;28;20024;-70
2021/05/29 04:02:49;;;;;;;10.97;4.20;;;;;;;;;;5083999;28;20501;-70
2021/05/29 04:05:15;;;;;;;9.63;3.87;;;;;;;;;;5083730;28;20028;-70
2021/05/29 04:07:41;;;;;;;11.43;4.40;;;;;;;;;;5087417;28;20471;-70
2021/05/29 04:10:10;;;;;;;11.50;4.40;;;;;;;;;;5086038;28;20027;-70
2021/05/29 04:12:36;;;;;;;9.30;4.07;;;;;;;;;;5087160;28;20032;-70
2021/05/29 04:15:01;;;;;;;10.80;4.40;;;;;;;;;;5086612;28;20532;-70
2021/05/29 04:17:26;;;;;;;11.07;4.07;;;;;;;;;;5089666;28;20032;-70
2021/05/29 04:19:52;;;;;;;10.50;3.93;;;;;;;;;;5086871;28;20799;-70
2021/05/29 04:22:17;;;;;;;11.00;4.23;;;;;;;;;;5086777;28;20032;-70
2021/05/29 04:24:42;;;;;;;8.23;3.60;;;;;;;;;;5085914;28;20411;-70
2021/05/29 04:27:08;;;;;;;10.23;3.87;;;;;;;;;;5086375;28;20035;-70
2021/05/29 04:29:33;;;;;;;10.30;4.03;;;;;;;;;;5083294;28;20023;-70
2021/05/29 04:32:00;;;;;;;11.17;4.33;;;;;;;;;;5087215;28;20051;-70
2021/05/29 04:34:25;;;;;;;11.30;4.43;;;;;;;;;;5084152;28;20012;-70
2021/05/29 04:36:50;;;;;;;10.17;4.00;;;;;;;;;;5087246;28;20028;-70
2021/05/29 04:39:15;;;;;;;9.43;3.83;;;;;;;;;;5086009;28;20032;-70
2021/05/29 04:41:41;;;;;;;12.03;4.37;;;;;;;;;;5087075;28;20495;-70
2021/05/29 04:44:06;;;;;;;10.30;4.13;;;;;;;;;;5084906;28;20372;-70
2021/05/29 04:46:38;;;;;;;9.83;3.83;;;;;;;;;;5086381;28;20028;-70
2021/05/29 04:49:03;;;;;;;11.52;3.50;;;;;;;;;;5086186;28;20073;-70
2021/05/29 04:51:28;;;;;;;10.73;4.30;;;;;;;;;;5090476;28;20067;-70
2021/05/29 04:53:54;;;;;;;9.83;4.00;;;;;;;;;;5083888;28;20047;-70
2021/05/29 04:56:19;;;;;;;9.90;3.70;;;;;;;;;;5086045;28;20046;-70
2021/05/29 04:58:44;;;;;;;12.00;4.00;;;;;;;;;;5085981;28;20060;-70
2021/05/29 05:01:11;;;;;;;8.87;3.70;;;;;;;;;;5085239;28;20040;-70
2021/05/29 05:03:37;;;;;;;10.17;3.83;;;;;;;;;;5086114;28;20059;-70
2021/05/29 05:06:02;;;;;;;10.73;4.30;;;;;;;;;;5085155;28;20059;-70
2021/05/29 05:08:28;;;;;;;7.83;3.77;;;;;;;;;;5082076;28;20060;-70
2021/05/29 05:10:55;;;;;;;10.50;4.13;;;;;;;;;;5086260;28;20032;-70
2021/05/29 05:13:21;;;;;;;14.27;4.60;;;;;;;;;;5086337;28;20040;-70
2021/05/29 05:15:46;;;;;;;9.43;4.10;;;;;;;;;;5085823;28;20820;-70
2021/05/29 05:18:12;;;;;;;8.67;3.77;;;;;;;;;;5089272;28;20035;-70
2021/05/29 05:20:37;;;;;;;10.33;3.73;;;;;;;;;;5085632;28;20500;-70
2021/05/29 05:23:03;;;;;;;10.30;4.30;;;;;;;;;;5083925;28;20033;-70
2021/05/29 05:25:29;;;;;;;12.43;4.00;;;;;;;;;;5088622;28;20028;-70
2021/05/29 05:27:55;;;;;;;7.80;3.43;;;;;;;;;;5082824;28;20036;-70
2021/05/29 05:30:20;;;;;;;10.60;3.93;;;;;;;;;;5078548;28;20032;-70
2021/05/29 05:32:46;;;;;;;9.87;4.13;;;;;;;;;;5084027;28;20066;-70
2021/05/29 05:35:14;;;;;;;11.63;4.30;;;;;;;;;;5089282;28;20492;-70
2021/05/29 05:37:40;;;;;;;11.83;4.17;;;;;;;;;;5086635;28;20023;-70
2021/05/29 05:40:05;;;;;;;8.17;3.93;;;;;;;;;;5089239;28;20035;-70
2021/05/29 05:42:31;;;;;;;9.17;3.70;;;;;;;;;;5089770;28;20032;-70
2021/05/29 05:44:56;;;;;;;12.10;4.27;;;;;;;;;;5088711;28;20036;-70
2021/05/29 05:47:21;;;;;;;10.60;3.97;;;;;;;;;;5087381;28;20280;-70
2021/05/29 05:49:47;;;;;;;9.63;4.43;;;;;;;;;;5070399;28;20024;-70
2021/05/29 05:52:12;;;;;;;10.13;4.47;;;;;;;;;;5089534;28;20119;-70
2021/05/29 05:54:37;;;;;;;11.83;4.53;;;;;;;;;;5084562;28;20024;-70
2021/05/29 05:57:03;;;;;;;11.37;5.30;;;;;;;;;;5088094;28;20475;-70
2021/05/29 05:59:28;;;;;;;13.13;4.53;;;;;;;;;;5093560;28;20024;-71
2021/05/29 06:01:53;;;;;;;9.70;4.70;;;;;;;;;;5089336;28;20046;-71
2021/05/29 06:04:18;;;;;;;10.50;4.37;;;;;;;;;;5088534;28;20048;-71
2021/05/29 06:06:44;;;;;;;10.63;5.17;;;;;;;;;;5080419;28;20027;-71
2021/05/29 06:09:09;;;;;;;11.37;5.13;;;;;;;;;;5087325;28;20479;-71
2021/05/29 06:11:34;;;;;;;11.30;4.50;;;;;;;;;;5089073;28;20027;-71
2021/05/29 06:19:17;;;;;;;10.23;4.73;;;;;;;;;;5087176;28;20035;-71
2021/05/29 06:21:50;;;;;;;15.67;4.70;;;;;;;;;;5088702;28;20024;-71
2021/05/29 06:24:17;;;;;;;11.80;4.57;;;;;;;;;;5084441;28;20024;-71
2021/05/29 06:26:43;;;;;;;11.37;5.27;;;;;;;;;;5089235;28;20043;-71
2021/05/29 06:29:08;;;;;;;10.33;4.77;;;;;;;;;;5079889;28;20040;-71
2021/05/29 06:31:34;;;;;;;14.23;5.10;;;;;;;;;;5088568;28;20016;-71
2021/05/29 06:33:59;;;;;;;11.13;5.07;;;;;;;;;;5088241;28;20067;-71
2021/05/29 06:36:25;;;;;;;10.13;4.67;;;;;;;;;;5088517;28;20116;-71
2021/05/29 06:38:50;;;;;;;12.23;4.87;;;;;;;;;;5087740;28;20468;-71
2021/05/29 06:41:16;;;;;;;11.83;5.00;;;;;;;;;;5087476;28;20047;-71
2021/05/29 06:43:41;;;;;;;9.80;4.60;;;;;;;;;;5083238;28;20027;-71
2021/05/29 06:46:07;;;;;;;10.60;4.33;;;;;;;;;;5086745;28;20032;-71
2021/05/29 06:48:32;;;;;;;11.93;4.97;;;;;;;;;;5085451;28;20533;-71
2021/05/29 06:50:58;;;;;;;10.60;4.73;;;;;;;;;;5090923;28;20028;-71
2021/05/29 06:53:28;;;;;;;9.97;4.63;;;;;;;;;;5086561;28;20391;-71
2021/05/29 06:58:50;;;;;;;14.63;4.67;;;;;;;;;;5081243;28;20459;-71
2021/05/29 07:01:16;;;;;;;9.97;4.80;;;;;;;;;;5088340;28;20046;-71
2021/05/29 07:03:42;;;;;;;20.27;6.30;;;;;;;;;;5070582;28;20061;-71
2021/05/29 07:06:07;;;;;;;10.87;5.13;;;;;;;;;;5063158;28;20041;-71
2021/05/29 07:08:33;;;;;;;17.37;6.20;;;;;;;;;;5062031;28;20468;-71
2021/05/29 07:10:58;;;;;;;13.33;5.47;;;;;;;;;;5071422;28;20020;-71
2021/05/29 07:13:23;;;;;;;17.07;6.40;;;;;;;;;;5068377;28;20032;-71
2021/05/29 07:15:48;;;;;;;12.30;5.80;;;;;;;;;;5066240;28;20366;-70
2021/05/29 07:18:15;;;;;;;10.33;5.23;;;;;;;;;;5069584;28;20036;-70
2021/05/29 07:20:41;;;;;;;11.43;5.43;;;;;;;;;;5064058;28;20457;-71
2021/05/29 07:23:06;;;;;;;9.53;5.07;;;;;;;;;;5049978;28;20090;-70
2021/05/29 07:25:32;;;;;;;13.17;5.57;;;;;;;;;;5055492;28;20086;-70
2021/05/29 07:27:57;;;;;;;11.20;5.03;;;;;;;;;;5065878;28;20036;-70
2021/05/29 07:30:24;;;;;;;11.03;5.80;;;;;;;;;;5058967;28;20054;-70
2021/05/29 07:32:50;;;;;;;11.03;5.40;;;;;;;;;;5064974;28;20028;-70
2021/05/29 07:35:15;;;;;;;14.30;5.27;;;;;;;;;;5066927;28;20085;-70
2021/05/29 07:37:41;;;;;;;12.70;5.60;;;;;;;;;;5062482;28;20094;-70
2021/05/29 07:40:07;;;;;;;10.20;5.17;;;;;;;;;;5060354;28;20059;-70
2021/05/29 07:42:32;;;;;;;11.27;5.60;;;;;;;;;;5060655;28;20041;-70
2021/05/29 07:44:58;;;;;;;10.03;5.13;;;;;;;;;;5045164;28;20056;-70
2021/05/29 07:47:23;;;;;;;13.57;6.33;;;;;;;;;;5059461;28;20032;-70
2021/05/29 07:49:48;;;;;;;15.20;5.67;;;;;;;;;;5065275;28;20052;-70
2021/05/29 07:52:13;;;;;;;12.30;5.70;;;;;;;;;;5064785;28;20108;-70
2021/05/29 07:54:39;;;;;;;11.27;5.93;;;;;;;;;;5052318;28;20064;-70
2021/05/29 07:57:04;;;;;;;11.80;6.00;;;;;;;;;;5065001;28;20112;-70
2021/05/29 07:59:30;;;;;;;17.13;6.70;;;;;;;;;;5058288;28;20031;-70
2021/05/29 08:01:55;;;;;;;12.37;6.30;;;;;;;;;;5055280;28;20040;-70
2021/05/29 08:04:20;;;;;;;13.80;6.33;;;;;;;;;;5056063;28;20058;-70
2021/05/29 08:06:45;;;;;;;13.70;6.50;;;;;;;;;;5067641;28;20111;-70
2021/05/29 08:09:11;;;;;;;11.00;5.00;;;;;;;;;;5064817;28;20050;-70
2021/05/29 08:11:37;;;;;;;11.27;5.17;;;;;;;;;;5067443;28;20384;-70
2021/05/29 08:14:03;;;;;;;11.50;5.67;;;;;;;;;;5057830;28;20507;-70
2021/05/29 08:16:29;;;;;;;12.53;5.83;;;;;;;;;;5069116;28;20028;-70
2021/05/29 08:18:54;;;;;;;11.40;6.33;;;;;;;;;;5063584;28;20043;-70
2021/05/29 08:21:21;;;;;;;10.97;5.70;;;;;;;;;;5064335;28;20532;-70
2021/05/29 08:23:46;;;;;;;9.43;5.27;;;;;;;;;;5066114;28;20044;-70
2021/05/29 08:26:13;;;;;;;10.97;6.07;;;;;;;;;;5063882;28;20467;-71
2021/05/29 08:28:38;;;;;;;10.87;5.63;;;;;;;;;;5064909;28;20040;-71
2021/05/29 08:31:04;;;;;;;12.70;6.13;;;;;;;;;;5061652;28;20028;-71
2021/05/29 08:33:29;;;;;;;12.20;5.47;;;;;;;;;;5063959;28;20395;-71
2021/05/29 08:35:55;;;;;;;13.93;5.73;;;;;;;;;;5066353;28;20029;-71
2021/05/29 08:38:20;;;;;;;10.60;5.17;;;;;;;;;;5064841;28;20024;-71
2021/05/29 08:40:45;;;;;;;9.80;4.77;;;;;;;;;;5067715;28;20047;-71
2021/05/29 08:43:11;;;;;;;11.23;5.87;;;;;;;;;;5066874;28;20477;-71
2021/05/29 08:45:36;;;;;;;9.17;5.17;;;;;;;;;;5067718;28;20033;-71
2021/05/29 08:48:02;;;;;;;9.90;5.50;;;;;;;;;;5062413;28;20446;-71
2021/05/29 08:50:27;;;;;;;9.90;5.37;;;;;;;;;;5061587;28;20029;-71
2021/05/29 08:52:53;;;;;;;9.53;5.00;;;;;;;;;;5066246;28;20036;-71
2021/05/29 08:55:19;;;;;;;8.40;4.50;;;;;;;;;;5066520;28;20032;-70
2021/05/29 08:57:44;;;;;;;9.63;5.60;;;;;;;;;;5067271;28;20112;-70
2021/05/29 09:00:12;;;;;;;10.80;5.50;;;;;;;;;;5065949;28;20119;-70
2021/05/29 09:02:56;;;;;;;8.90;4.80;;;;;;;;;;5050764;28;20047;-70
2021/05/29 09:05:32;;;;;;;11.47;5.40;;;;;;;;;;5083373;28;20454;-70
2021/05/29 09:08:00;;;;;;;11.67;5.10;;;;;;;;;;5086174;28;20089;-70
2021/05/29 09:10:26;;;;;;;11.60;5.30;;;;;;;;;;5086350;28;20028;-70
2021/05/29 09:13:01;;;;;;;8.73;4.40;;;;;;;;;;5089367;28;20024;-70
2021/05/29 09:15:44;;;;;;;11.70;4.43;;;;;;;;;;5089838;28;20441;-70
2021/05/29 09:18:28;;;;;;;9.00;4.23;;;;;;;;;;5088230;28;20491;-70
2021/05/29 09:21:13;;;;;;;9.50;4.00;;;;;;;;;;5089672;28;20031;-70
2021/05/29 09:24:01;;;;;;;13.30;4.83;;;;;;;;;;5086006;28;20043;-70
2021/05/29 09:26:43;;;;;;;8.40;4.27;;;;;;;;;;5089854;28;20032;-70
2021/05/29 09:29:17;;;;;;;7.53;4.22;;;;;;;;;;5089156;28;20036;-70
2021/05/29 09:31:53;;;;;;;10.87;4.70;;;;;;;;;;5089969;28;20016;-70
2021/05/29 09:34:39;;;;;;;8.67;4.90;;;;;;;;;;5089484;28;20515;-70
2021/05/29 09:37:09;;;;;;;14.90;4.90;;;;;;;;;;5087758;28;20064;-70
2021/05/29 09:39:36;;;;;;;12.40;6.00;;;;;;;;;;5085686;28;20057;-70
2021/05/29 09:42:02;;;;;;;9.80;4.87;;;;;;;;;;5089472;28;20026;-70
2021/05/29 09:44:28;;;;;;;11.70;5.50;;;;;;;;;;5089661;28;20492;-70
2021/05/29 09:46:54;;;;;;;10.37;4.93;;;;;;;;;;5090246;28;20097;-70
2021/05/29 09:49:20;;;;;;;12.30;5.73;;;;;;;;;;5088419;28;20059;-70
2021/05/29 09:51:45;;;;;;;10.47;5.43;;;;;;;;;;5089463;28;20074;-70
2021/05/29 09:54:11;;;;;;;11.87;5.60;;;;;;;;;;5090116;28;20026;-70
2021/05/29 09:56:41;;;;;;;10.80;5.77;;;;;;;;;;5089562;28;20428;-70
2021/05/29 09:59:08;;;;;;;15.33;7.20;;;;;;;;;;5089999;28;20039;-70
2021/05/29 10:01:36;;;;;;;14.90;7.07;;;;;;;;;;5087216;28;20062;-71
2021/05/29 10:04:03;;;;;;;10.20;5.90;;;;;;;;;;5080378;28;20048;-71
2021/05/29 10:06:28;;;;;;;13.63;6.57;;;;;;;;;;5094706;28;20019;-71
2021/05/29 10:08:53;;;;;;;10.90;6.80;;;;;;;;;;5089564;28;20044;-71
2021/05/29 10:11:19;;;;;;;12.40;6.23;;;;;;;;;;5088358;28;20028;-71
2021/05/29 10:13:44;;;;;;;12.27;5.77;;;;;;;;;;5094799;28;20479;-71
2021/05/29 10:16:10;;;;;;;9.57;5.40;;;;;;;;;;5097396;28;20031;-71
2021/05/29 10:18:35;;;;;;;12.93;6.00;;;;;;;;;;5087700;28;20146;-70
2021/05/29 10:21:01;;;;;;;10.30;5.77;;;;;;;;;;5088695;28;20019;-70
2021/05/29 10:23:26;;;;;;;11.27;5.87;;;;;;;;;;5085713;28;20042;-70
2021/05/29 10:25:52;;;;;;;10.10;5.87;;;;;;;;;;5088629;28;20267;-70
2021/05/29 10:28:18;;;;;;;10.43;6.10;;;;;;;;;;5089305;28;20055;-71
2021/05/29 10:30:44;;;;;;;12.73;5.60;;;;;;;;;;5088195;28;20020;-71
2021/05/29 10:33:16;;;;;;;9.77;5.30;;;;;;;;;;5087111;28;20043;-71
2021/05/29 10:35:43;;;;;;;11.30;5.47;;;;;;;;;;5087187;28;20022;-71
2021/05/29 10:38:08;;;;;;;9.97;5.00;;;;;;;;;;5091478;28;20024;-71
2021/05/29 10:40:36;;;;;;;8.33;5.00;;;;;;;;;;5088167;28;20047;-71
2021/05/29 10:43:09;;;;;;;9.97;5.10;;;;;;;;;;5086492;28;20034;-71
2021/05/29 10:45:36;;;;;;;9.00;5.20;;;;;;;;;;5088202;28;20030;-71
2021/05/29 10:48:05;;;;;;;7.20;4.70;;;;;;;;;;5087949;28;20028;-71
2021/05/29 10:51:06;;;;;;;9.63;5.50;;;;;;;;;;5069533;28;20039;-71
2021/05/29 10:53:52;;;;;;;8.32;5.03;;;;;;;;;;5086486;28;20499;-71
2021/05/29 10:56:20;;;;;;;10.50;5.30;;;;;;;;;;5085301;28;20229;-71
2021/05/29 10:58:54;;;;;;;8.15;5.18;;;;;;;;;;5087081;28;20262;-71
2021/05/29 11:01:23;;;;;;;7.45;4.78;;;;;;;;;;5086692;28;20035;-71
2021/05/29 11:04:07;;;;;;;9.80;4.97;;;;;;;;;;5065507;28;20093;-71
2021/05/29 11:06:32;;;;;;;10.18;4.82;;;;;;;;;;5061426;28;20039;-71
2021/05/29 11:09:00;;;;;;;7.38;4.72;;;;;;;;;;5065193;28;20026;-71
2021/05/29 11:11:48;;;;;;;7.45;4.55;;;;;;;;;;5069831;28;20024;-71
2021/05/29 11:14:20;;;;;;;8.77;4.43;;;;;;;;;;5074257;28;20032;-71
2021/05/29 11:16:46;;;;;;;6.13;4.05;;;;;;;;;;5071332;28;20025;-71
2021/05/29 11:19:15;;;;;;;7.95;4.70;;;;;;;;;;5066545;28;20035;-71
2021/05/29 11:21:59;;;;;;;9.25;4.70;;;;;;;;;;5065790;28;20039;-71
2021/05/29 11:24:25;;;;;;;7.38;4.68;;;;;;;;;;5065498;28;20028;-71
2021/05/29 11:26:50;;;;;;;23.98;6.70;;;;;;;;;;5068419;28;20495;-71
2021/05/29 11:29:16;;;;;;;9.55;5.32;;;;;;;;;;5070082;28;20093;-71
2021/05/29 11:31:45;;;;;;;7.63;4.70;;;;;;;;;;5069659;28;20043;-71
2021/05/29 11:34:10;;;;;;;8.57;4.75;;;;;;;;;;5063777;28;20056;-71
2021/05/29 11:36:39;;;;;;;9.77;4.57;;;;;;;;;;5061046;28;20070;-71
2021/05/29 11:39:08;;;;;;;6.95;4.50;;;;;;;;;;5061395;28;20043;-71
2021/05/29 11:41:33;;;;;;;8.32;4.80;;;;;;;;;;5066131;28;20055;-71
2021/05/29 11:43:59;;;;;;;7.53;4.82;;;;;;;;;;5065999;28;21395;-71
2021/05/29 11:46:26;;;;;;;6.88;4.60;;;;;;;;;;5067719;28;20035;-71
2021/05/29 11:48:55;;;;;;;6.22;4.05;;;;;;;;;;5063211;28;20036;-71
2021/05/29 11:51:21;;;;;;;6.40;3.63;;;;;;;;;;5059606;28;20087;-71
2021/05/29 11:53:47;;;;;;;7.13;3.92;;;;;;;;;;5062661;28;20059;-72
2021/05/29 11:56:13;;;;;;;6.10;3.78;;;;;;;;;;5052925;28;20459;-72
2021/05/29 11:58:48;;;;;;;7.43;3.75;;;;;;;;;;5061678;28;20070;-72
2021/05/29 12:01:15;;;;;;;7.70;4.20;;;;;;;;;;5049302;28;20038;-69
2021/05/29 12:03:42;;;;;;;6.68;4.43;;;;;;;;;;5059958;28;20056;-69
2021/05/29 12:06:07;;;;;;;8.75;5.07;;;;;;;;;;5065637;28;20123;-69
2021/05/29 12:08:51;;;;;;;6.68;3.60;;;;;;;;;;5067250;28;20489;-69
2021/05/29 12:11:16;;;;;;;7.32;3.80;;;;;;;;;;5065285;28;20028;-69
2021/05/29 12:13:41;;;;;;;6.10;3.58;;;;;;;;;;5056816;28;20483;-69
2021/05/29 12:16:08;;;;;;;14.48;5.43;;;;;;;;;;5066025;28;20043;-69
2021/05/29 12:18:39;;;;;;;13.10;4.32;;;;;;;;;;5061401;28;20044;-69
2021/05/29 12:21:06;;;;;;;7.20;3.78;;;;;;;;;;5062797;28;20025;-72
2021/05/29 12:23:49;;;;;;;8.57;3.22;;;;;;;;;;5064685;28;20035;-72
2021/05/29 12:26:14;;;;;;;5.60;3.30;;;;;;;;;;5061957;28;20032;-72
2021/05/29 12:28:39;;;;;;;5.68;3.35;;;;;;;;;;5056460;28;20035;-72
2021/05/29 12:31:05;;;;;;;6.30;3.40;;;;;;;;;;5067371;28;20490;-72
2021/05/29 12:33:30;;;;;;;6.10;3.40;;;;;;;;;;5055971;28;20032;-72
2021/05/29 12:36:05;;;;;;;4.43;2.78;;;;;;;;;;5058138;28;20028;-72
2021/05/29 12:38:30;;;;;;;7.53;3.28;;;;;;;;;;5057178;28;20028;-70
2021/05/29 12:40:56;;;;;;;6.47;3.17;;;;;;;;;;5057825;28;20029;-69
2021/05/29 12:43:21;;;;;;;5.65;3.45;;;;;;;;;;5062188;28;20056;-69
2021/05/29 12:45:46;;;;;;;7.78;3.35;;;;;;;;;;5071470;28;20024;-69
2021/05/29 12:48:13;;;;;;;6.55;3.53;;;;;;;;;;5062695;28;20444;-69
2021/05/29 12:50:39;;;;;;;6.25;3.55;;;;;;;;;;5060557;28;20098;-69
2021/05/29 12:53:09;;;;;;;5.60;3.70;;;;;;;;;;5064129;28;20024;-69
2021/05/29 12:55:34;;;;;;;5.45;3.05;;;;;;;;;;5061054;28;20033;-69
2021/05/29 12:58:11;;;;;;;6.97;3.40;;;;;;;;;;5072982;28;20033;-69
2021/05/29 13:11:40;;;;;;;7.30;3.55;;;;;;;;;;5088798;28;20036;-71
2021/05/29 13:14:07;;;;;;;9.05;3.78;;;;;;;;;;5086213;28;20381;-71
2021/05/29 13:16:50;;;;;;;6.28;3.35;;;;;;;;;;5091107;28;20044;-72
2021/05/29 13:19:16;;;;;;;5.45;3.40;;;;;;;;;;5088630;28;20032;-72
2021/05/29 13:21:48;;;;;;;6.55;3.33;;;;;;;;;;5089120;28;20028;-69
2021/05/29 13:24:33;;;;;;;4.78;2.60;;;;;;;;;;5091095;28;20373;-69
2021/05/29 13:26:58;;;;;;;5.20;2.40;;;;;;;;;;5079415;28;20472;-69
2021/05/29 13:29:24;;;;;;;5.63;2.60;;;;;;;;;;5084137;28;20035;-69
2021/05/29 13:31:50;;;;;;;5.20;2.30;;;;;;;;;;5088742;28;20016;-69
2021/05/29 13:34:15;;;;;;;5.45;2.20;;;;;;;;;;5088363;28;20028;-69
2021/05/29 13:36:40;;;;;;;6.35;2.60;;;;;;;;;;5091030;28;20034;-69
2021/05/29 13:39:05;;;;;;;4.22;2.53;;;;;;;;;;5089238;28;20081;-69
2021/05/29 13:41:31;;;;;;;4.50;2.40;;;;;;;;;;5086380;28;20028;-69
2021/05/29 13:43:57;;;;;;;4.93;2.35;;;;;;;;;;5084860;28;20516;-70
2021/05/29 13:46:22;;;;;;;4.28;2.38;;;;;;;;;;5079611;28;20028;-70
2021/05/29 13:48:47;;;;;;;4.65;2.35;;;;;;;;;;5089068;28;20020;-71
2021/05/29 13:51:12;;;;;;;4.13;2.08;;;;;;;;;;5091217;28;20376;-70
2021/05/29 13:53:38;;;;;;;4.65;2.20;;;;;;;;;;5086560;28;20020;-69
2021/05/29 13:56:03;;;;;;;4.45;2.00;;;;;;;;;;5089628;28;20043;-69
2021/05/29 13:58:28;;;;;;;4.82;2.15;;;;;;;;;;5083510;28;20039;-69
2021/05/29 14:00:53;;;;;;;5.30;2.30;;;;;;;;;;5087311;28;20114;-69
2021/05/29 14:03:19;;;;;;;4.78;2.45;;;;;;;;;;5089869;28;20052;-69
2021/05/29 14:05:44;;;;;;;5.18;2.75;;;;;;;;;;5086036;28;20112;-68
2021/05/29 14:08:10;;;;;;;6.95;2.50;;;;;;;;;;5088857;28;20058;-69
2021/05/29 14:10:35;;;;;;;4.45;2.47;;;;;;;;;;5088196;28;20031;-69
2021/05/29 14:13:01;;;;;;;6.28;3.15;;;;;;;;;;5089601;28;20018;-69
2021/05/29 14:15:26;;;;;;;5.55;2.22;;;;;;;;;;5084852;28;20471;-69
2021/05/29 14:17:52;;;;;;;6.40;2.38;;;;;;;;;;5087755;28;20020;-69
2021/05/29 14:20:17;;;;;;;5.30;2.30;;;;;;;;;;5088722;28;20424;-69
2021/05/29 14:22:42;;;;;;;5.43;2.40;;;;;;;;;;5087838;28;20051;-69
2021/05/29 14:25:08;;;;;;;5.10;2.30;;;;;;;;;;5087058;28;20062;-69
2021/05/29 14:27:33;;;;;;;5.47;2.30;;;;;;;;;;5087455;28;20099;-69
2021/05/29 14:29:59;;;;;;;3.60;1.85;;;;;;;;;;5086849;28;20035;-69
2021/05/29 14:32:24;;;;;;;5.68;2.05;;;;;;;;;;5089939;28;20051;-69
2021/05/29 14:34:52;;;;;;;6.15;2.30;;;;;;;;;;5083261;28;20361;-69
2021/05/29 14:37:17;;;;;;;7.00;2.17;;;;;;;;;;5088733;28;20433;-69
2021/05/29 14:39:45;;;;;;;3.60;1.83;;;;;;;;;;5088741;28;20043;-69
2021/05/29 14:42:10;;;;;;;5.72;2.22;;;;;;;;;;5088277;28;20377;-69
2021/05/29 14:44:36;;;;;;;4.80;2.47;;;;;;;;;;5085572;28;20070;-69
2021/05/29 14:47:01;;;;;;;5.57;2.20;;;;;;;;;;5090222;28;20028;-71
2021/05/29 14:49:26;;;;;;;5.45;2.08;;;;;;;;;;5089334;28;20526;-71
2021/05/29 14:51:52;;;;;;;4.38;2.17;;;;;;;;;;5086231;28;20028;-69
2021/05/29 14:54:18;;;;;;;4.50;2.33;;;;;;;;;;5084703;28;20028;-69